createdAt,value
2022-11-26T00:02:25.050Z,7.20
2022-11-26T00:05:16.773Z,7.10
2022-11-26T00:08:05.035Z,7.10
2022-11-26T00:10:54.025Z,7.20
2022-11-26T00:13:41.367Z,7.10
2022-11-26T00:16:29.942Z,7.20
2022-11-26T00:19:17.066Z,7.30
2022-11-26T00:22:04.048Z,7.30
2022-11-26T00:24:51.833Z,7.30
2022-11-26T00:27:39.040Z,7.30
2022-11-26T00:30:28.201Z,7.30
2022-11-26T00:33:15.670Z,7.10
2022-11-26T00:36:09.249Z,7.10
2022-11-26T00:38:59.788Z,7.10
2022-11-26T00:41:53.204Z,7.10
2022-11-26T00:44:40.707Z,7.10
2022-11-26T00:47:27.822Z,7.00
2022-11-26T00:50:17.714Z,6.90
2022-11-26T00:53:06.581Z,6.90
2022-11-26T00:55:53.805Z,7.00
2022-11-26T00:58:41.098Z,6.90
2022-11-26T01:01:28.790Z,7.00
2022-11-26T01:04:16.046Z,7.00
2022-11-26T01:07:03.572Z,6.90
2022-11-26T01:09:50.764Z,6.80
2022-11-26T01:12:38.216Z,6.80
2022-11-26T01:15:27.005Z,6.70
2022-11-26T01:18:20.401Z,6.70
2022-11-26T01:21:09.075Z,6.70
2022-11-26T01:23:57.458Z,6.70
2022-11-26T01:26:45.724Z,6.70
2022-11-26T01:29:33.094Z,6.70
2022-11-26T01:32:22.323Z,6.60
2022-11-26T01:35:09.597Z,6.50
2022-11-26T01:37:57.231Z,6.50
2022-11-26T01:41:09.425Z,6.50
2022-11-26T01:43:58.581Z,6.50
2022-11-26T01:46:46.576Z,6.50
2022-11-26T01:49:35.729Z,6.50
2022-11-26T01:52:25.648Z,6.60
2022-11-26T01:55:16.075Z,6.60
2022-11-26T01:58:04.848Z,6.60
2022-11-26T02:00:52.787Z,6.60
2022-11-26T02:03:43.342Z,6.40
2022-11-26T02:06:33.539Z,6.30
2022-11-26T02:09:21.445Z,6.30
2022-11-26T02:12:08.891Z,6.30
2022-11-26T02:14:56.686Z,6.10
2022-11-26T02:17:49.667Z,6.10
2022-11-26T02:20:49.386Z,6.10
2022-11-26T02:23:58.068Z,6.10
2022-11-26T02:26:51.095Z,6.00
2022-11-26T02:29:53.920Z,6.10
2022-11-26T02:33:02.730Z,6.10
2022-11-26T02:35:53.480Z,6.20
2022-11-26T02:38:41.206Z,6.30
2022-11-26T02:41:30.408Z,6.30
2022-11-26T02:44:20.226Z,6.30
2022-11-26T02:47:10.804Z,6.40
2022-11-26T02:50:01.426Z,6.40
2022-11-26T02:52:51.596Z,6.40
2022-11-26T02:55:44.939Z,6.40
2022-11-26T02:58:34.255Z,6.40
2022-11-26T03:01:39.214Z,6.30
2022-11-26T03:04:33.032Z,6.40
2022-11-26T03:07:21.564Z,6.30
2022-11-26T03:10:09.192Z,6.30
2022-11-26T03:12:56.405Z,6.20
2022-11-26T03:15:43.942Z,6.30
2022-11-26T03:18:31.593Z,6.20
2022-11-26T03:21:18.833Z,6.20
2022-11-26T03:24:06.232Z,6.20
2022-11-26T03:26:53.988Z,6.10
2022-11-26T03:29:41.050Z,6.00
2022-11-26T03:32:28.280Z,6.00
2022-11-26T03:35:15.809Z,6.00
2022-11-26T03:38:03.255Z,5.90
2022-11-26T03:40:59.581Z,5.80
2022-11-26T03:43:47.701Z,5.80
2022-11-26T03:46:34.843Z,5.80
2022-11-26T03:49:22.373Z,5.80
2022-11-26T03:52:09.938Z,5.80
2022-11-26T03:54:57.138Z,5.80
2022-11-26T03:57:44.353Z,5.80
2022-11-26T04:00:31.649Z,5.80
2022-11-26T04:03:19.358Z,5.70
2022-11-26T04:06:06.672Z,5.40
2022-11-26T04:08:53.867Z,5.50
2022-11-26T04:11:41.255Z,5.40
2022-11-26T04:14:28.689Z,5.40
2022-11-26T04:17:15.885Z,5.30
2022-11-26T04:20:03.237Z,5.10
2022-11-26T04:22:50.861Z,4.80
2022-11-26T04:25:38.196Z,4.80
2022-11-26T04:28:25.340Z,4.90
2022-11-26T04:31:13.063Z,4.90
2022-11-26T04:34:00.306Z,4.90
2022-11-26T04:36:47.738Z,4.80
2022-11-26T04:39:35.364Z,4.80
2022-11-26T04:42:22.899Z,4.80
2022-11-26T04:45:11.111Z,4.70
2022-11-26T04:47:58.322Z,4.50
2022-11-26T04:50:45.752Z,4.50
2022-11-26T04:53:33.101Z,4.60
2022-11-26T04:56:20.570Z,4.40
2022-11-26T04:59:08.537Z,4.50
2022-11-26T05:01:55.965Z,4.40
2022-11-26T05:04:43.098Z,4.40
2022-11-26T05:07:30.425Z,4.20
2022-11-26T05:10:18.189Z,4.10
2022-11-26T05:13:05.299Z,4.10
2022-11-26T05:15:52.708Z,3.90
2022-11-26T05:18:39.966Z,3.80
2022-11-26T05:21:27.192Z,3.70
2022-11-26T05:24:14.751Z,3.60
2022-11-26T05:27:01.913Z,3.40
2022-11-26T05:29:49.437Z,3.40
2022-11-26T05:32:36.813Z,3.50
2022-11-26T05:35:23.953Z,3.70
2022-11-26T05:38:11.488Z,3.70
2022-11-26T05:40:58.871Z,3.70
2022-11-26T05:43:46.009Z,3.70
2022-11-26T05:46:33.242Z,3.60
2022-11-26T05:49:20.885Z,3.50
2022-11-26T05:52:08.251Z,3.50
2022-11-26T05:54:55.691Z,3.50
2022-11-26T05:57:42.925Z,3.60
2022-11-26T06:00:30.268Z,3.60
2022-11-26T06:03:20.333Z,3.60
2022-11-26T06:06:06.684Z,3.60
2022-11-26T06:08:53.862Z,3.60
2022-11-26T06:11:41.246Z,3.60
2022-11-26T06:14:28.574Z,3.50
2022-11-26T06:17:15.986Z,3.40
2022-11-26T06:20:03.437Z,3.40
2022-11-26T06:22:50.853Z,3.40
2022-11-26T06:25:39.795Z,3.40
2022-11-26T06:28:27.538Z,3.40
2022-11-26T06:31:15.272Z,3.50
2022-11-26T06:34:02.792Z,3.30
2022-11-26T06:36:50.322Z,3.40
2022-11-26T06:39:37.488Z,3.20
2022-11-26T06:42:24.636Z,3.10
2022-11-26T06:45:12.049Z,3.10
2022-11-26T06:47:59.520Z,3.10
2022-11-26T06:50:47.118Z,3.10
2022-11-26T06:53:34.616Z,3.00
2022-11-26T06:56:22.093Z,2.90
2022-11-26T06:59:09.439Z,2.80
2022-11-26T07:01:56.971Z,2.90
2022-11-26T07:04:44.440Z,3.00
2022-11-26T07:07:31.632Z,3.10
2022-11-26T07:10:20.192Z,3.20
2022-11-26T07:13:07.694Z,3.20
2022-11-26T07:15:55.217Z,3.10
2022-11-26T07:18:42.640Z,2.90
2022-11-26T07:21:30.848Z,2.90
2022-11-26T07:24:18.251Z,3.00
2022-11-26T07:27:05.498Z,3.10
2022-11-26T07:29:53.005Z,3.10
2022-11-26T07:32:40.448Z,3.10
2022-11-26T07:35:27.566Z,3.00
2022-11-26T07:38:15.032Z,3.00
2022-11-26T07:41:08.068Z,3.10
2022-11-26T07:43:56.134Z,3.30
2022-11-26T07:46:43.503Z,3.50
2022-11-26T07:49:30.536Z,3.60
2022-11-26T07:52:17.764Z,3.70
2022-11-26T07:55:11.033Z,3.90
2022-11-26T07:57:54.712Z,4.10
2022-11-26T08:00:42.122Z,4.20
2022-11-26T08:03:29.554Z,4.40
2022-11-26T08:06:19.895Z,4.60
2022-11-26T08:09:07.577Z,4.70
2022-11-26T08:11:54.682Z,4.80
2022-11-26T08:14:43.887Z,4.90
2022-11-26T08:17:31.130Z,5.00
2022-11-26T08:20:18.685Z,5.20
2022-11-26T08:23:05.865Z,5.30
2022-11-26T08:26:20.515Z,5.50
2022-11-26T08:28:46.953Z,5.50
2022-11-26T08:31:34.934Z,5.70
2022-11-26T08:34:22.241Z,6.00
2022-11-26T08:37:09.660Z,5.80
2022-11-26T08:39:57.216Z,5.60
2022-11-26T08:42:44.804Z,5.60
2022-11-26T08:45:31.976Z,5.90
2022-11-26T08:48:19.226Z,6.00
2022-11-26T08:51:09.733Z,6.20
2022-11-26T08:53:57.092Z,6.20
2022-11-26T08:56:44.343Z,6.30
2022-11-26T08:59:31.218Z,6.40
2022-11-26T09:02:19.229Z,6.60
2022-11-26T09:05:07.195Z,6.80
2022-11-26T09:07:54.986Z,7.00
2022-11-26T09:10:42.371Z,7.10
2022-11-26T09:13:30.101Z,7.20
2022-11-26T09:16:17.368Z,7.40
2022-11-26T09:19:06.154Z,7.60
2022-11-26T09:21:53.546Z,7.80
2022-11-26T09:24:41.320Z,8.00
2022-11-26T09:27:28.531Z,8.20
2022-11-26T09:30:16.265Z,8.50
2022-11-26T09:33:07.358Z,8.70
2022-11-26T09:35:54.834Z,9.20
2022-11-26T09:38:42.473Z,9.60
2022-11-26T09:41:47.963Z,10.10
2022-11-26T09:44:55.044Z,10.50
2022-11-26T09:47:45.612Z,11.00
2022-11-26T09:50:38.553Z,10.90
2022-11-26T09:53:29.388Z,11.00
2022-11-26T09:56:19.568Z,11.30
2022-11-26T09:59:09.734Z,11.40
2022-11-26T10:01:57.320Z,11.50
2022-11-26T10:04:44.957Z,11.60
2022-11-26T10:07:53.913Z,11.60
2022-11-26T10:10:53.223Z,11.70
2022-11-26T10:13:46.656Z,11.70
2022-11-26T10:16:59.754Z,11.90
2022-11-26T10:19:53.164Z,12.00
2022-11-26T10:22:57.070Z,12.10
2022-11-26T10:25:54.825Z,12.10
2022-11-26T10:28:52.297Z,12.30
2022-11-26T10:31:40.060Z,12.30
2022-11-26T10:34:30.465Z,12.50
2022-11-26T10:37:16.998Z,12.50
2022-11-26T10:40:26.871Z,12.60
2022-11-26T10:43:19.927Z,12.60
2022-11-26T10:46:07.337Z,12.80
2022-11-26T10:48:54.562Z,12.80
2022-11-26T10:51:41.927Z,12.80
2022-11-26T10:54:32.242Z,12.90
2022-11-26T10:57:20.738Z,13.10
2022-11-26T11:00:09.885Z,13.20
2022-11-26T11:02:57.659Z,13.20
2022-11-26T11:05:45.724Z,13.20
2022-11-26T11:08:33.972Z,13.20
2022-11-26T11:11:32.092Z,13.10
2022-11-26T11:14:31.807Z,13.10
2022-11-26T11:17:34.529Z,13.10
2022-11-26T11:20:27.885Z,13.20
2022-11-26T11:23:39.949Z,13.00
2022-11-26T11:26:19.239Z,13.00
2022-11-26T11:29:06.550Z,13.10
2022-11-26T11:31:58.757Z,13.20
2022-11-26T11:34:47.159Z,13.40
2022-11-26T11:37:34.620Z,13.60
2022-11-26T11:40:28.820Z,13.30
2022-11-26T11:43:19.710Z,13.20
2022-11-26T11:46:16.126Z,13.30
2022-11-26T11:49:18.478Z,13.30
2022-11-26T11:52:28.535Z,13.50
2022-11-26T11:55:56.939Z,13.40
2022-11-26T11:59:05.609Z,13.60
2022-11-26T12:02:16.624Z,13.50
2022-11-26T12:05:15.802Z,13.50
2022-11-26T12:08:15.338Z,13.20
2022-11-26T12:11:39.145Z,12.80
2022-11-26T12:14:35.296Z,12.90
2022-11-26T12:17:50.059Z,12.70
2022-11-26T12:20:44.172Z,12.50
2022-11-26T12:23:55.338Z,12.30
2022-11-26T12:26:48.880Z,12.10
2022-11-26T12:29:45.390Z,11.70
2022-11-26T12:32:42.433Z,11.40
2022-11-26T12:35:36.215Z,11.30
2022-11-26T12:38:26.701Z,11.20
2022-11-26T12:41:25.598Z,11.10
2022-11-26T12:44:31.535Z,11.00
2022-11-26T12:47:25.108Z,11.00
2022-11-26T12:50:27.488Z,10.90
2022-11-26T12:53:26.837Z,10.70
2022-11-26T12:56:26.297Z,10.40
2022-11-26T12:59:32.019Z,10.00
2022-11-26T13:02:28.618Z,9.90
2022-11-26T13:05:35.616Z,10.00
2022-11-26T13:08:42.546Z,10.00
2022-11-26T13:11:45.042Z,10.00
2022-11-26T13:14:35.454Z,9.80
2022-11-26T13:17:25.714Z,9.30
2022-11-26T13:20:31.233Z,9.00
2022-11-26T13:23:44.524Z,8.90
2022-11-26T13:27:01.526Z,9.00
2022-11-26T13:29:53.178Z,9.00
2022-11-26T13:33:01.799Z,8.70
2022-11-26T13:36:13.844Z,8.70
2022-11-26T13:39:35.525Z,8.60
2022-11-26T13:42:49.698Z,8.40
2022-11-26T13:46:03.197Z,8.40
2022-11-26T13:49:16.374Z,8.40
2022-11-26T13:52:12.707Z,8.30
2022-11-26T13:55:09.077Z,8.40
2022-11-26T13:57:59.542Z,8.60
2022-11-26T14:00:46.712Z,8.70
2022-11-26T14:03:49.148Z,8.60
2022-11-26T14:06:36.789Z,8.70
2022-11-26T14:09:47.011Z,8.80
2022-11-26T14:13:07.903Z,8.80
2022-11-26T14:16:09.775Z,8.80
2022-11-26T14:18:59.349Z,8.60
2022-11-26T14:22:02.084Z,8.60
2022-11-26T14:24:52.600Z,8.60
2022-11-26T14:27:57.244Z,8.70
2022-11-26T14:30:44.095Z,8.80
2022-11-26T14:33:32.988Z,8.70
2022-11-26T14:36:26.306Z,8.80
2022-11-26T14:39:17.054Z,8.80
2022-11-26T14:42:06.568Z,8.80
2022-11-26T14:45:08.173Z,8.70
2022-11-26T14:47:55.529Z,8.70
2022-11-26T14:50:43.898Z,8.70
2022-11-26T14:53:33.932Z,8.80
2022-11-26T14:56:24.157Z,8.90
2022-11-26T14:59:15.095Z,8.90
2022-11-26T15:02:02.761Z,8.90
2022-11-26T15:04:59.733Z,8.90
2022-11-26T15:07:50.337Z,8.80
2022-11-26T15:10:49.741Z,8.70
2022-11-26T15:13:45.675Z,8.70
2022-11-26T15:16:35.942Z,8.70
2022-11-26T15:19:26.646Z,8.70
2022-11-26T15:22:23.315Z,8.70
2022-11-26T15:25:19.897Z,8.70
2022-11-26T15:28:21.356Z,8.70
2022-11-26T15:31:12.251Z,8.60
2022-11-26T15:34:00.220Z,8.60
2022-11-26T15:36:47.716Z,8.60
2022-11-26T15:39:34.973Z,8.70
2022-11-26T15:42:32.182Z,8.70
2022-11-26T15:45:20.142Z,8.70
2022-11-26T15:48:09.737Z,8.80
2022-11-26T15:51:00.286Z,8.90
2022-11-26T15:53:50.437Z,9.10
2022-11-26T15:56:39.895Z,9.00
2022-11-26T15:59:30.009Z,8.90
2022-11-26T16:02:23.224Z,8.80
2022-11-26T16:05:27.197Z,8.80
2022-11-26T16:08:30.363Z,8.90
2022-11-26T16:11:23.882Z,8.90
2022-11-26T16:14:35.632Z,8.90
2022-11-26T16:17:23.125Z,9.00
2022-11-26T16:20:25.946Z,9.10
2022-11-26T16:23:18.923Z,9.20
2022-11-26T16:26:19.257Z,9.30
2022-11-26T16:29:09.852Z,9.40
2022-11-26T16:31:57.430Z,9.40
2022-11-26T16:34:45.581Z,9.30
2022-11-26T16:37:33.456Z,9.20
2022-11-26T16:40:21.360Z,9.10
2022-11-26T16:43:08.519Z,9.10
2022-11-26T16:45:57.188Z,9.10
2022-11-26T16:48:45.862Z,9.00
2022-11-26T16:51:33.230Z,8.90
2022-11-26T16:54:20.378Z,8.90
2022-11-26T16:57:09.754Z,9.00
2022-11-26T16:59:59.922Z,9.10
2022-11-26T17:02:47.773Z,9.10
2022-11-26T17:05:34.765Z,9.10
2022-11-26T17:08:22.065Z,9.20
2022-11-26T17:11:12.871Z,9.10
2022-11-26T17:14:00.318Z,9.10
2022-11-26T17:16:48.941Z,9.10
2022-11-26T17:19:36.007Z,9.10
2022-11-26T17:22:25.472Z,9.10
2022-11-26T17:25:13.147Z,9.20
2022-11-26T17:28:00.447Z,9.30
2022-11-26T17:30:48.091Z,9.30
2022-11-26T17:33:35.366Z,9.30
2022-11-26T17:36:24.847Z,9.30
2022-11-26T17:39:12.862Z,9.20
2022-11-26T17:42:00.321Z,9.20
2022-11-26T17:44:48.629Z,9.20
2022-11-26T17:47:35.875Z,9.10
2022-11-26T17:50:26.224Z,9.10
2022-11-26T17:53:13.773Z,9.00
2022-11-26T17:56:01.006Z,9.10
2022-11-26T17:58:48.919Z,9.30
2022-11-26T18:01:36.448Z,9.40
2022-11-26T18:04:24.363Z,9.40
2022-11-26T18:07:14.825Z,9.50
2022-11-26T18:10:02.040Z,9.50
2022-11-26T18:12:51.606Z,9.60
2022-11-26T18:15:39.277Z,9.70
2022-11-26T18:18:27.179Z,9.80
2022-11-26T18:21:14.574Z,9.80
2022-11-26T18:24:02.165Z,9.80
2022-11-26T18:26:49.266Z,9.70
2022-11-26T18:29:36.955Z,9.80
2022-11-26T18:32:24.453Z,9.60
2022-11-26T18:35:12.989Z,9.50
2022-11-26T18:38:00.226Z,9.40
2022-11-26T18:40:47.521Z,9.40
2022-11-26T18:43:36.394Z,9.40
2022-11-26T18:46:23.610Z,9.40
2022-11-26T18:49:10.891Z,9.50
2022-11-26T18:51:58.338Z,9.40
2022-11-26T18:54:45.602Z,9.40
2022-11-26T18:57:33.692Z,9.40
2022-11-26T19:00:21.070Z,9.30
2022-11-26T19:03:08.509Z,9.20
2022-11-26T19:05:56.298Z,9.20
2022-11-26T19:08:43.857Z,9.20
2022-11-26T19:11:31.463Z,9.20
2022-11-26T19:14:18.984Z,9.10
2022-11-26T19:17:07.043Z,9.10
2022-11-26T19:19:54.397Z,9.10
2022-11-26T19:22:41.718Z,9.00
2022-11-26T19:25:30.514Z,9.00
2022-11-26T19:28:17.806Z,9.10
2022-11-26T19:31:08.817Z,9.20
2022-11-26T19:34:00.896Z,9.30
2022-11-26T19:36:49.187Z,9.40
2022-11-26T19:39:37.362Z,9.30
2022-11-26T19:42:25.048Z,9.30
2022-11-26T19:45:12.334Z,9.40
2022-11-26T19:47:59.743Z,9.40
2022-11-26T19:50:50.025Z,9.30
2022-11-26T19:53:38.486Z,9.30
2022-11-26T19:56:28.247Z,9.40
2022-11-26T19:59:16.515Z,9.50
2022-11-26T20:02:03.801Z,9.70
2022-11-26T20:04:51.034Z,9.70
2022-11-26T20:07:38.698Z,9.50
2022-11-26T20:10:26.158Z,9.40
2022-11-26T20:13:13.807Z,9.30
2022-11-26T20:16:03.235Z,9.40
2022-11-26T20:18:51.109Z,9.30
2022-11-26T20:21:38.901Z,9.30
2022-11-26T20:24:26.891Z,9.40
2022-11-26T20:27:14.379Z,9.40
2022-11-26T20:30:01.634Z,9.50
2022-11-26T20:32:49.022Z,9.60
2022-11-26T20:35:38.361Z,9.50
2022-11-26T20:38:25.577Z,9.60
2022-11-26T20:41:16.928Z,9.50
2022-11-26T20:44:03.831Z,9.50
2022-11-26T20:46:51.437Z,9.50
2022-11-26T20:49:42.977Z,9.60
2022-11-26T20:52:28.411Z,9.60
2022-11-26T20:55:17.547Z,9.70
2022-11-26T20:58:04.813Z,9.80
2022-11-26T21:00:54.047Z,9.80
2022-11-26T21:03:41.409Z,9.70
2022-11-26T21:06:30.676Z,9.70
2022-11-26T21:09:18.053Z,9.70
2022-11-26T21:12:05.736Z,9.60
2022-11-26T21:14:53.205Z,9.60
2022-11-26T21:17:40.727Z,9.50
2022-11-26T21:20:31.038Z,9.40
2022-11-26T21:23:16.671Z,9.50
2022-11-26T21:26:09.284Z,9.60
2022-11-26T21:28:59.166Z,9.60
2022-11-26T21:31:46.724Z,9.60
2022-11-26T21:34:34.323Z,9.60
2022-11-26T21:37:22.449Z,9.60
2022-11-26T21:40:10.648Z,9.70
2022-11-26T21:42:58.037Z,9.70
2022-11-26T21:45:45.515Z,9.70
2022-11-26T21:48:35.489Z,9.60
2022-11-26T21:51:23.867Z,9.50
2022-11-26T21:54:12.094Z,9.40
2022-11-26T21:56:59.966Z,9.40
2022-11-26T21:59:47.479Z,9.40
2022-11-26T22:02:35.028Z,9.30
2022-11-26T22:05:22.560Z,9.20
2022-11-26T22:08:10.156Z,9.30
2022-11-26T22:10:57.577Z,9.40
2022-11-26T22:13:44.907Z,9.40
2022-11-26T22:16:32.750Z,9.30
2022-11-26T22:19:20.433Z,9.30
2022-11-26T22:22:07.902Z,9.30
2022-11-26T22:24:55.480Z,9.10
2022-11-26T22:27:42.984Z,9.20
2022-11-26T22:30:30.540Z,9.30
2022-11-26T22:33:17.716Z,9.20
2022-11-26T22:36:05.484Z,9.10
2022-11-26T22:38:53.064Z,9.10
2022-11-26T22:41:41.934Z,9.10
2022-11-26T22:44:29.420Z,9.10
2022-11-26T22:47:17.106Z,9.10
2022-11-26T22:50:04.511Z,9.10
2022-11-26T22:52:55.016Z,9.00
2022-11-26T22:55:45.336Z,9.10
2022-11-26T22:58:33.988Z,9.10
2022-11-26T23:01:27.063Z,9.20
2022-11-26T23:04:14.328Z,9.40
2022-11-26T23:07:01.535Z,9.40
2022-11-26T23:09:48.896Z,9.40
2022-11-26T23:12:36.483Z,9.50
2022-11-26T23:15:25.546Z,9.60
2022-11-26T23:18:15.317Z,9.70
2022-11-26T23:21:14.839Z,9.70
2022-11-26T23:24:02.486Z,9.70
2022-11-26T23:26:49.783Z,9.60
2022-11-26T23:29:37.467Z,9.60
2022-11-26T23:32:28.256Z,9.60
2022-11-26T23:35:14.064Z,9.60
2022-11-26T23:38:01.368Z,9.70
2022-11-26T23:41:01.962Z,9.60
2022-11-26T23:43:49.796Z,9.60
2022-11-26T23:46:37.254Z,9.50
2022-11-26T23:49:24.447Z,9.50
2022-11-26T23:52:12.222Z,9.40
2022-11-26T23:54:59.545Z,9.40
2022-11-26T23:57:46.649Z,9.30
